createdAt,value
2023-01-13T00:01:27.062Z,-3.53
2023-01-13T00:03:54.428Z,-3.38
2023-01-13T00:06:25.919Z,-3.43
2023-01-13T00:08:54.104Z,-3.34
2023-01-13T00:11:22.382Z,-3.34
2023-01-13T00:13:49.665Z,-3.28
2023-01-13T00:16:18.637Z,-3.25
2023-01-13T00:18:46.313Z,-3.15
2023-01-13T00:21:16.595Z,-3.19
2023-01-13T00:23:44.306Z,-3.26
2023-01-13T00:26:15.794Z,-3.63
2023-01-13T00:28:43.226Z,-3.69
2023-01-13T00:31:21.487Z,-3.51
2023-01-13T00:33:49.464Z,-3.53
2023-01-13T00:36:18.739Z,-3.42
2023-01-13T00:38:45.916Z,-3.30
2023-01-13T00:41:15.923Z,-3.14
2023-01-13T00:43:43.183Z,-3.28
2023-01-13T00:46:12.502Z,-3.26
2023-01-13T00:48:39.670Z,-3.51
2023-01-13T00:51:18.774Z,-3.48
2023-01-13T00:53:49.090Z,-3.53
2023-01-13T00:56:34.012Z,-3.60
2023-01-13T00:59:05.443Z,-3.53
2023-01-13T01:01:33.005Z,-3.36
2023-01-13T01:04:00.098Z,-3.28
2023-01-13T01:06:28.283Z,-3.18
2023-01-13T01:08:56.468Z,-3.28
2023-01-13T01:11:29.654Z,-3.42
2023-01-13T01:13:59.014Z,-3.58
2023-01-13T01:16:27.880Z,-3.64
2023-01-13T01:18:55.349Z,-3.60
2023-01-13T01:21:24.150Z,-3.42
2023-01-13T01:23:51.276Z,-3.29
2023-01-13T01:26:24.207Z,-3.22
2023-01-13T01:28:52.068Z,-3.48
2023-01-13T01:31:25.000Z,-3.40
2023-01-13T01:33:53.274Z,-3.36
2023-01-13T01:36:22.193Z,-3.51
2023-01-13T01:38:50.001Z,-3.34
2023-01-13T01:41:20.431Z,-3.49
2023-01-13T01:44:04.616Z,-3.44
2023-01-13T01:46:38.534Z,-3.40
2023-01-13T01:49:17.831Z,-3.48
2023-01-13T01:52:04.569Z,-3.72
2023-01-13T01:54:45.498Z,-3.77
2023-01-13T01:57:17.141Z,-3.81
2023-01-13T01:59:45.005Z,-3.69
2023-01-13T02:02:12.428Z,-3.57
2023-01-13T02:04:43.471Z,-3.64
2023-01-13T02:07:10.964Z,-3.70
2023-01-13T02:09:38.140Z,-3.57
2023-01-13T02:12:23.774Z,-3.56
2023-01-13T02:14:50.893Z,-3.63
2023-01-13T02:17:29.869Z,-3.47
2023-01-13T02:20:22.813Z,-3.36
2023-01-13T02:23:38.873Z,-3.48
2023-01-13T02:26:24.184Z,-3.56
2023-01-13T02:29:26.122Z,-3.72
2023-01-13T02:31:59.466Z,-3.81
2023-01-13T02:34:41.184Z,-3.92
2023-01-13T02:37:17.069Z,-3.78
2023-01-13T02:40:10.697Z,-3.95
2023-01-13T02:43:03.151Z,-4.05
2023-01-13T02:45:40.255Z,-3.88
2023-01-13T02:48:09.566Z,-3.90
2023-01-13T02:50:41.656Z,-3.72
2023-01-13T02:53:20.406Z,-4.04
2023-01-13T02:55:51.624Z,-3.99
2023-01-13T02:58:24.458Z,-3.84
2023-01-13T03:00:52.481Z,-3.72
2023-01-13T03:03:19.876Z,-3.79
2023-01-13T03:05:49.929Z,-3.69
2023-01-13T03:08:43.194Z,-3.75
2023-01-13T03:11:13.244Z,-3.78
2023-01-13T03:14:04.613Z,-3.79
2023-01-13T03:16:59.862Z,-3.91
2023-01-13T03:19:57.339Z,-3.91
2023-01-13T03:23:22.732Z,-3.79
2023-01-13T03:26:01.867Z,-3.81
2023-01-13T03:28:36.225Z,-3.88
2023-01-13T03:31:13.873Z,-3.94
2023-01-13T03:34:05.004Z,-3.85
2023-01-13T03:36:32.780Z,-3.82
2023-01-13T03:39:08.312Z,-3.73
2023-01-13T03:42:00.081Z,-3.83
2023-01-13T03:44:33.991Z,-3.81
2023-01-13T03:47:04.282Z,-3.68
2023-01-13T03:49:51.110Z,-3.64
2023-01-13T03:52:35.272Z,-3.85
2023-01-13T03:55:18.782Z,-3.85
2023-01-13T03:58:06.951Z,-3.98
2023-01-13T04:00:46.282Z,-3.87
2023-01-13T04:03:39.597Z,-3.80
2023-01-13T04:06:40.594Z,-3.81
2023-01-13T04:09:41.796Z,-3.78
2023-01-13T04:12:19.284Z,-3.87
2023-01-13T04:14:46.827Z,-3.75
2023-01-13T04:17:14.165Z,-3.67
2023-01-13T04:19:41.211Z,-3.60
2023-01-13T04:22:08.209Z,-3.61
2023-01-13T04:24:35.314Z,-3.78
2023-01-13T04:27:02.539Z,-3.92
2023-01-13T04:29:29.537Z,-3.86
2023-01-13T04:31:56.541Z,-3.95
2023-01-13T04:34:23.492Z,-3.80
2023-01-13T04:36:50.527Z,-3.81
2023-01-13T04:39:18.182Z,-3.69
2023-01-13T04:42:01.383Z,-3.64
2023-01-13T04:44:31.448Z,-3.81
2023-01-13T04:46:58.915Z,-3.86
2023-01-13T04:49:27.334Z,-3.82
2023-01-13T04:51:54.345Z,-3.76
2023-01-13T04:54:21.442Z,-3.67
2023-01-13T04:56:48.571Z,-3.94
2023-01-13T04:59:15.659Z,-3.66
2023-01-13T05:01:42.987Z,-3.76
2023-01-13T05:04:10.204Z,-3.73
2023-01-13T05:06:37.324Z,-3.68
2023-01-13T05:09:04.321Z,-3.62
2023-01-13T05:11:50.296Z,-3.67
2023-01-13T05:14:35.832Z,-3.63
2023-01-13T05:17:03.756Z,-3.78
2023-01-13T05:19:34.242Z,-3.85
2023-01-13T05:22:20.759Z,-3.79
2023-01-13T05:25:06.327Z,-3.82
2023-01-13T05:27:33.894Z,-3.62
2023-01-13T05:30:01.309Z,-3.51
2023-01-13T05:32:28.726Z,-3.47
2023-01-13T05:34:56.407Z,-3.34
2023-01-13T05:37:24.483Z,-3.25
2023-01-13T05:40:10.548Z,-3.31
2023-01-13T05:42:56.204Z,-3.26
2023-01-13T05:45:23.776Z,-3.19
2023-01-13T05:47:50.832Z,-3.14
2023-01-13T05:50:18.192Z,-3.14
2023-01-13T05:52:45.155Z,-3.15
2023-01-13T05:55:12.598Z,-3.05
2023-01-13T05:57:40.542Z,-3.09
2023-01-13T06:00:08.289Z,-3.09
2023-01-13T06:02:41.551Z,-3.23
2023-01-13T06:05:08.920Z,-3.16
2023-01-13T06:07:35.885Z,-3.16
2023-01-13T06:10:02.901Z,-3.10
2023-01-13T06:12:30.748Z,-3.12
2023-01-13T06:14:57.759Z,-3.15
2023-01-13T06:17:24.757Z,-3.33
2023-01-13T06:19:51.786Z,-3.20
2023-01-13T06:22:23.411Z,-3.14
2023-01-13T06:24:51.343Z,-3.40
2023-01-13T06:27:18.664Z,-3.35
2023-01-13T06:29:45.673Z,-3.26
2023-01-13T06:32:17.451Z,-3.21
2023-01-13T06:34:49.469Z,-3.35
2023-01-13T06:37:21.749Z,-3.53
2023-01-13T06:39:49.565Z,-3.40
2023-01-13T06:42:35.322Z,-3.52
2023-01-13T06:45:02.491Z,-3.45
2023-01-13T06:47:30.102Z,-3.53
2023-01-13T06:49:57.447Z,-3.40
2023-01-13T06:52:24.579Z,-3.26
2023-01-13T06:54:51.756Z,-3.12
2023-01-13T06:57:18.754Z,-3.12
2023-01-13T06:59:45.783Z,-3.08
2023-01-13T07:02:12.888Z,-3.11
2023-01-13T07:04:39.949Z,-3.15
2023-01-13T07:07:08.133Z,-3.32
2023-01-13T07:09:35.124Z,-3.43
2023-01-13T07:12:02.218Z,-3.42
2023-01-13T07:14:47.668Z,-3.36
2023-01-13T07:17:14.678Z,-3.42
2023-01-13T07:19:41.765Z,-3.54
2023-01-13T07:22:08.796Z,-3.50
2023-01-13T07:24:35.825Z,-3.32
2023-01-13T07:27:02.775Z,-3.42
2023-01-13T07:29:29.781Z,-3.63
2023-01-13T07:31:56.952Z,-3.43
2023-01-13T07:34:24.065Z,-3.40
2023-01-13T07:36:51.027Z,-3.28
2023-01-13T07:39:18.106Z,-3.54
2023-01-13T07:42:03.629Z,-3.46
2023-01-13T07:44:30.666Z,-3.26
2023-01-13T07:46:57.645Z,-3.14
2023-01-13T07:49:24.741Z,-3.16
2023-01-13T07:51:51.881Z,-3.37
2023-01-13T07:54:35.112Z,-3.29
2023-01-13T07:57:07.038Z,-3.34
2023-01-13T07:59:34.022Z,-3.32
2023-01-13T08:02:01.235Z,-3.30
2023-01-13T08:04:28.518Z,-3.25
2023-01-13T08:06:58.261Z,-3.26
2023-01-13T08:09:26.128Z,-3.15
2023-01-13T08:12:14.414Z,-3.09
2023-01-13T08:14:41.810Z,-2.93
2023-01-13T08:17:09.861Z,-2.95
2023-01-13T08:19:37.043Z,-2.93
2023-01-13T08:22:04.118Z,-3.09
2023-01-13T08:24:31.176Z,-3.12
2023-01-13T08:26:58.273Z,-3.07
2023-01-13T08:29:25.354Z,-2.95
2023-01-13T08:31:52.366Z,-2.86
2023-01-13T08:34:19.603Z,-2.76
2023-01-13T08:36:49.134Z,-2.76
2023-01-13T08:39:16.229Z,-2.80
2023-01-13T08:41:55.917Z,-2.92
2023-01-13T08:44:24.865Z,-3.14
2023-01-13T08:46:52.209Z,-3.03
2023-01-13T08:49:19.802Z,-2.93
2023-01-13T08:51:46.968Z,-2.86
2023-01-13T08:54:14.771Z,-2.78
2023-01-13T08:56:43.581Z,-2.66
2023-01-13T08:59:15.313Z,-2.74
2023-01-13T09:01:42.852Z,-2.83
2023-01-13T09:04:17.929Z,-2.84
2023-01-13T09:06:45.354Z,-2.81
2023-01-13T09:09:12.856Z,-2.98
2023-01-13T09:12:01.970Z,-2.89
2023-01-13T09:14:31.699Z,-2.84
2023-01-13T09:16:59.659Z,-2.72
2023-01-13T09:19:28.251Z,-2.77
2023-01-13T09:21:57.449Z,-2.86
2023-01-13T09:24:25.319Z,-2.96
2023-01-13T09:26:52.669Z,-2.94
2023-01-13T09:29:19.894Z,-2.95
2023-01-13T09:31:48.332Z,-3.13
2023-01-13T09:34:36.895Z,-3.10
2023-01-13T09:37:06.345Z,-3.29
2023-01-13T09:39:34.859Z,-3.24
2023-01-13T09:42:58.866Z,-3.20
2023-01-13T09:45:42.677Z,-3.13
2023-01-13T09:48:29.400Z,-2.98
2023-01-13T09:51:25.160Z,-3.26
2023-01-13T09:53:59.290Z,-3.08
2023-01-13T09:56:26.893Z,-3.32
2023-01-13T09:58:54.253Z,-3.06
2023-01-13T10:01:32.673Z,-3.15
2023-01-13T10:04:11.911Z,-3.13
2023-01-13T10:06:45.771Z,-3.14
2023-01-13T10:09:25.956Z,-3.11
2023-01-13T10:12:15.012Z,-2.96
2023-01-13T10:14:47.672Z,-2.75
2023-01-13T10:17:39.400Z,-2.79
2023-01-13T10:20:17.045Z,-2.71
2023-01-13T10:22:43.990Z,-2.71
2023-01-13T10:25:32.748Z,-2.96
2023-01-13T10:28:10.713Z,-2.95
2023-01-13T10:30:43.466Z,-2.98
2023-01-13T10:33:17.767Z,-2.85
2023-01-13T10:35:58.173Z,-2.81
2023-01-13T10:38:36.574Z,-2.68
2023-01-13T10:41:17.125Z,-2.64
2023-01-13T10:44:09.356Z,-2.73
2023-01-13T10:46:55.318Z,-2.74
2023-01-13T10:49:38.801Z,-2.80
2023-01-13T10:52:28.214Z,-2.81
2023-01-13T10:54:55.978Z,-2.73
2023-01-13T10:57:25.233Z,-2.84
2023-01-13T10:59:53.239Z,-2.59
2023-01-13T11:02:29.907Z,-2.63
2023-01-13T11:04:58.259Z,-2.60
2023-01-13T11:07:31.141Z,-2.72
2023-01-13T11:10:22.357Z,-2.80
2023-01-13T11:13:01.368Z,-2.73
2023-01-13T11:15:57.904Z,-2.54
2023-01-13T11:19:14.338Z,-2.52
2023-01-13T11:21:50.659Z,-2.60
2023-01-13T11:24:40.907Z,-2.65
2023-01-13T11:27:46.690Z,-2.73
2023-01-13T11:30:48.501Z,-2.65
2023-01-13T11:33:16.973Z,-2.72
2023-01-13T11:36:09.415Z,-2.60
2023-01-13T11:38:48.510Z,-2.69
2023-01-13T11:41:35.781Z,-2.45
2023-01-13T11:44:17.133Z,-2.44
2023-01-13T11:46:44.429Z,-2.58
2023-01-13T11:49:25.073Z,-2.66
2023-01-13T11:52:20.812Z,-2.46
2023-01-13T11:55:22.688Z,-2.34
2023-01-13T11:58:01.966Z,-2.40
2023-01-13T12:00:33.118Z,-2.45
2023-01-13T12:03:18.866Z,-2.53
2023-01-13T12:05:59.925Z,-3.18
2023-01-13T12:08:50.060Z,-2.96
2023-01-13T12:11:58.763Z,-2.91
2023-01-13T12:14:34.744Z,-2.82
2023-01-13T12:17:07.133Z,-2.92
2023-01-13T12:19:34.205Z,-3.00
2023-01-13T12:22:15.302Z,-2.88
2023-01-13T12:24:55.526Z,-3.01
2023-01-13T12:27:49.412Z,-2.93
2023-01-13T12:30:29.712Z,-2.72
2023-01-13T12:33:03.467Z,-2.68
2023-01-13T12:35:42.368Z,-2.61
2023-01-13T12:38:21.291Z,-2.73
2023-01-13T12:41:13.042Z,-2.58
2023-01-13T12:44:05.508Z,-2.49
2023-01-13T12:46:32.440Z,-2.46
2023-01-13T12:49:02.503Z,-2.55
2023-01-13T12:51:33.546Z,-2.49
2023-01-13T12:54:02.460Z,-2.38
2023-01-13T12:56:36.592Z,-2.64
2023-01-13T12:59:24.415Z,-2.63
2023-01-13T13:02:12.913Z,-2.59
2023-01-13T13:04:49.612Z,-2.53
2023-01-13T13:07:32.051Z,-2.65
2023-01-13T13:10:05.276Z,-2.84
2023-01-13T13:13:00.178Z,-2.78
2023-01-13T13:15:30.201Z,-2.59
2023-01-13T13:18:00.442Z,-2.46
2023-01-13T13:21:05.234Z,-2.45
2023-01-13T13:23:50.190Z,-2.46
2023-01-13T13:26:30.879Z,-2.61
2023-01-13T13:29:35.181Z,-2.56
2023-01-13T13:32:17.660Z,-2.71
2023-01-13T13:35:05.828Z,-2.57
2023-01-13T13:38:16.688Z,-2.54
2023-01-13T13:41:06.064Z,-2.64
2023-01-13T13:43:59.320Z,-2.59
2023-01-13T13:46:47.858Z,-2.83
2023-01-13T13:49:18.081Z,-2.62
2023-01-13T13:52:11.069Z,-2.55
2023-01-13T13:54:42.619Z,-2.70
2023-01-13T13:57:23.039Z,-2.56
2023-01-13T13:59:57.777Z,-2.73
2023-01-13T14:02:30.844Z,-2.71
2023-01-13T14:05:27.201Z,-2.66
2023-01-13T14:08:10.407Z,-2.67
2023-01-13T14:10:40.076Z,-2.65
2023-01-13T14:13:19.316Z,-2.82
2023-01-13T14:15:48.397Z,-2.66
2023-01-13T14:18:21.485Z,-2.51
2023-01-13T14:21:00.502Z,-2.43
2023-01-13T14:23:32.650Z,-2.39
2023-01-13T14:26:08.073Z,-2.58
2023-01-13T14:28:37.799Z,-2.71
2023-01-13T14:31:07.105Z,-2.81
2023-01-13T14:33:39.638Z,-2.75
2023-01-13T14:36:15.095Z,-2.52
2023-01-13T14:38:44.629Z,-2.53
2023-01-13T14:41:22.833Z,-2.48
2023-01-13T14:43:51.851Z,-2.53
2023-01-13T14:46:21.197Z,-2.56
2023-01-13T14:48:50.221Z,-2.48
2023-01-13T14:51:27.161Z,-2.56
2023-01-13T14:53:55.094Z,-2.64
2023-01-13T14:56:50.006Z,-2.47
2023-01-13T14:59:36.846Z,-2.35
2023-01-13T15:02:29.184Z,-2.42
2023-01-13T15:05:19.232Z,-2.50
2023-01-13T15:08:09.961Z,-2.32
2023-01-13T15:11:13.405Z,-2.19
2023-01-13T15:13:53.129Z,-2.21
2023-01-13T15:16:28.226Z,-2.72
2023-01-13T15:18:56.505Z,-2.61
2023-01-13T15:21:25.168Z,-2.55
2023-01-13T15:23:52.317Z,-2.42
2023-01-13T15:26:53.390Z,-2.40
2023-01-13T15:46:34.741Z,-2.41
2023-01-13T15:49:35.162Z,-2.28
2023-01-13T15:52:18.095Z,-2.26
2023-01-13T15:54:45.128Z,-2.15
2023-01-13T15:57:33.020Z,-2.18
2023-01-13T16:00:08.613Z,-2.25
2023-01-13T16:02:35.617Z,-2.43
2023-01-13T16:05:02.696Z,-2.36
2023-01-13T16:07:30.680Z,-2.50
2023-01-13T16:13:47.675Z,-2.64
2023-01-13T16:16:25.337Z,-2.43
2023-01-13T16:24:14.856Z,-2.30
2023-01-13T16:26:41.832Z,-2.22
2023-01-13T16:29:12.669Z,-2.27
2023-01-13T16:31:42.431Z,-2.30
2023-01-13T16:34:09.800Z,-2.22
2023-01-13T16:36:37.455Z,-2.27
2023-01-13T16:39:19.312Z,-2.42
2023-01-13T16:41:46.411Z,-2.46
2023-01-13T16:44:16.774Z,-2.31
2023-01-13T16:46:47.823Z,-2.33
2023-01-13T16:49:30.828Z,-2.14
2023-01-13T16:52:05.209Z,-2.27
2023-01-13T16:59:39.524Z,-2.52
2023-01-13T17:02:13.251Z,-2.40
2023-01-13T17:04:40.448Z,-2.26
2023-01-13T17:07:08.635Z,-2.20
2023-01-13T17:09:35.724Z,-2.15
2023-01-13T17:12:02.769Z,-2.07
2023-01-13T17:18:03.235Z,-2.01
2023-01-13T17:20:31.117Z,-2.16
2023-01-13T17:22:58.743Z,-2.03
2023-01-13T17:25:26.522Z,-2.10
2023-01-13T17:27:53.726Z,-2.05
2023-01-13T17:30:21.593Z,-2.04
2023-01-13T17:32:52.986Z,-2.10
2023-01-13T17:35:24.859Z,-2.06
2023-01-13T17:37:53.406Z,-2.03
2023-01-13T17:40:20.836Z,-1.91
2023-01-13T17:42:48.039Z,-2.12
2023-01-13T17:45:16.551Z,-2.12
2023-01-13T17:47:44.106Z,-2.00
2023-01-13T17:50:11.835Z,-2.03
2023-01-13T17:52:39.390Z,-2.06
2023-01-13T17:55:14.094Z,-2.06
2023-01-13T17:57:46.140Z,-1.92
2023-01-13T18:00:14.766Z,-2.02
2023-01-13T18:02:46.843Z,-1.93
2023-01-13T18:05:14.523Z,-1.87
2023-01-13T18:07:49.900Z,-2.03
2023-01-13T18:10:34.247Z,-1.94
2023-01-13T18:13:03.670Z,-1.86
2023-01-13T18:15:31.239Z,-1.87
2023-01-13T18:17:58.530Z,-1.91
2023-01-13T18:20:47.599Z,-2.05
2023-01-13T18:23:47.584Z,-2.06
2023-01-13T18:26:37.962Z,-2.20
2023-01-13T18:29:06.085Z,-2.11
2023-01-13T18:31:33.239Z,-2.17
2023-01-13T18:34:07.229Z,-2.18
2023-01-13T18:41:25.407Z,-1.99
2023-01-13T18:43:52.604Z,-2.06
2023-01-13T18:46:19.734Z,-1.98
2023-01-13T18:48:46.802Z,-1.96
2023-01-13T18:51:14.039Z,-1.98
2023-01-13T18:53:41.155Z,-1.93
2023-01-13T18:56:13.223Z,-1.97
2023-01-13T18:58:51.852Z,-1.81
2023-01-13T19:01:25.841Z,-1.67
2023-01-13T19:03:57.104Z,-2.00
2023-01-13T19:06:35.264Z,-1.93
2023-01-13T19:09:08.853Z,-1.90
2023-01-13T19:11:57.212Z,-1.78
2023-01-13T19:15:31.402Z,-1.75
2023-01-13T19:18:09.787Z,-1.88
2023-01-13T19:21:05.478Z,-1.74
2023-01-13T19:23:49.563Z,-1.80
2023-01-13T19:26:17.894Z,-1.95
2023-01-13T19:28:45.758Z,-2.09
2023-01-13T19:31:14.248Z,-1.98
2023-01-13T19:33:41.581Z,-1.91
2023-01-13T19:36:10.860Z,-1.84
2023-01-13T19:38:38.606Z,-1.77
2023-01-13T19:41:27.766Z,-1.74
2023-01-13T19:44:39.489Z,-1.69
2023-01-13T19:47:06.768Z,-1.79
2023-01-13T19:49:34.587Z,-1.73
2023-01-13T19:52:01.855Z,-1.88
2023-01-13T19:54:29.081Z,-1.95
2023-01-13T19:56:56.267Z,-1.84
2023-01-13T19:59:29.266Z,-1.78
2023-01-13T20:02:33.475Z,-1.89
2023-01-13T20:05:03.417Z,-1.84
2023-01-13T20:07:31.085Z,-1.76
2023-01-13T20:09:58.425Z,-1.77
2023-01-13T20:12:27.532Z,-1.72
2023-01-13T20:14:55.063Z,-1.79
2023-01-13T20:17:22.448Z,-1.87
2023-01-13T20:19:49.435Z,-1.83
2023-01-13T20:22:16.426Z,-1.93
2023-01-13T20:24:43.540Z,-1.91
2023-01-13T20:27:10.878Z,-1.74
2023-01-13T20:29:38.054Z,-1.68
2023-01-13T20:32:05.337Z,-1.69
2023-01-13T20:34:32.573Z,-1.55
2023-01-13T20:37:00.456Z,-1.42
2023-01-13T20:39:28.229Z,-1.41
2023-01-13T20:42:14.928Z,-1.40
2023-01-13T20:44:44.166Z,-1.66
2023-01-13T20:47:11.433Z,-1.80
2023-01-13T20:49:41.742Z,-1.86
2023-01-13T20:52:11.476Z,-1.76
2023-01-13T20:54:40.139Z,-1.71
2023-01-13T20:57:10.036Z,-1.68
2023-01-13T20:59:38.764Z,-1.67
2023-01-13T21:02:08.247Z,-1.60
2023-01-13T21:04:35.194Z,-1.74
2023-01-13T21:07:02.215Z,-1.59
2023-01-13T21:09:29.406Z,-1.54
2023-01-13T21:12:15.277Z,-1.53
2023-01-13T21:15:00.693Z,-1.50
2023-01-13T21:17:46.255Z,-1.51
2023-01-13T21:20:14.894Z,-1.57
2023-01-13T21:22:46.753Z,-1.53
2023-01-13T21:25:14.559Z,-1.49
2023-01-13T21:27:44.004Z,-1.36
2023-01-13T21:30:14.968Z,-1.40
2023-01-13T21:32:44.363Z,-1.44
2023-01-13T21:35:12.807Z,-1.53
2023-01-13T21:37:41.711Z,-1.54
2023-01-13T21:40:13.089Z,-1.55
2023-01-13T21:42:59.295Z,-1.46
2023-01-13T21:45:49.427Z,-1.52
2023-01-13T21:48:16.570Z,-1.52
2023-01-13T21:50:43.737Z,-1.49
2023-01-13T21:53:11.308Z,-1.50
2023-01-13T21:55:38.285Z,-1.36
2023-01-13T21:58:14.079Z,-1.35
2023-01-13T22:00:45.411Z,-1.55
2023-01-13T22:03:14.068Z,-1.53
2023-01-13T22:05:41.242Z,-1.47
2023-01-13T22:08:08.745Z,-1.41
2023-01-13T22:10:36.131Z,-1.46
2023-01-13T22:13:23.664Z,-1.39
2023-01-13T22:15:50.712Z,-1.41
2023-01-13T22:18:20.489Z,-1.45
2023-01-13T22:20:48.845Z,-1.47
2023-01-13T22:23:16.088Z,-1.61
2023-01-13T22:25:43.058Z,-1.51
2023-01-13T22:28:13.888Z,-1.59
2023-01-13T22:30:41.196Z,-1.74
2023-01-13T22:33:08.191Z,-1.63
2023-01-13T22:35:35.159Z,-1.58
2023-01-13T22:38:02.281Z,-1.47
2023-01-13T22:40:29.256Z,-1.40
2023-01-13T22:42:56.397Z,-1.63
2023-01-13T22:45:23.357Z,-1.55
2023-01-13T22:47:50.290Z,-1.45
2023-01-13T22:50:20.805Z,-1.50
2023-01-13T22:52:47.965Z,-1.48
2023-01-13T22:55:15.061Z,-1.48
2023-01-13T22:57:47.787Z,-1.45
2023-01-13T23:00:19.239Z,-1.36
2023-01-13T23:02:46.740Z,-1.41
2023-01-13T23:05:14.186Z,-1.37
2023-01-13T23:07:41.421Z,-1.27
2023-01-13T23:10:09.125Z,-1.24
2023-01-13T23:12:36.101Z,-1.06
2023-01-13T23:15:03.797Z,-1.15
2023-01-13T23:17:31.142Z,-1.10
2023-01-13T23:19:58.178Z,-0.97
2023-01-13T23:22:25.123Z,-0.92
2023-01-13T23:24:52.063Z,-0.97
2023-01-13T23:27:19.148Z,-0.89
2023-01-13T23:29:46.143Z,-0.88
2023-01-13T23:32:13.081Z,-0.88
2023-01-13T23:34:40.096Z,-0.92
2023-01-13T23:37:07.039Z,-0.91
2023-01-13T23:39:34.026Z,-0.93
2023-01-13T23:42:01.048Z,-0.99
2023-01-13T23:44:28.050Z,-0.87
2023-01-13T23:46:55.132Z,-0.79
2023-01-13T23:49:22.135Z,-0.91
2023-01-13T23:51:52.348Z,-0.91
2023-01-13T23:54:20.216Z,-0.91
2023-01-13T23:56:49.619Z,-0.80
2023-01-13T23:59:16.727Z,-0.78
